Time;durP1;ratioP1;P1;durP2;ratioP2;P2;SDS_P1;SDS_P2;PMS_P1;PMS_P2;Temp;Humidity;BMP_temperature;BMP_pressure;BME280_temperature;BME280_humidity;BME280_pressure;Samples;Min_cycle;Max_cycle;Signal;HPM_P1;HPM_P2
2022/07/16 00:01:22;;;;;;;15.15;2.85;;;;;;;22.80;59.00;100207.03;5010464;28;20109;-69
2022/07/16 00:01:46;;;;;;;12.85;2.97;;;;;;;23.06;59.58;100282.03;5010177;28;20025;-69
2022/07/16 00:04:12;;;;;;;12.75;3.05;;;;;;;22.73;60.02;100240.50;5010278;28;20024;-69
2022/07/16 00:06:37;;;;;;;11.20;3.13;;;;;;;22.56;60.42;100219.72;5010370;28;20041;-84
2022/07/16 00:09:03;;;;;;;9.35;2.90;;;;;;;22.81;60.47;100285.09;5009143;28;20029;-70
2022/07/16 00:11:28;;;;;;;13.52;3.10;;;;;;;22.50;60.84;100238.22;5010494;28;20487;-69
2022/07/16 00:13:54;;;;;;;17.35;2.85;;;;;;;22.53;61.49;100276.78;5010228;28;20026;-69
2022/07/16 00:16:19;;;;;;;13.57;3.17;;;;;;;22.56;61.11;100279.38;5010407;28;20041;-69
2022/07/16 00:21:29;;;;;;;8.90;2.85;;;;;;;22.20;62.85;100248.28;5010876;28;20044;-84
2022/07/16 00:23:54;;;;;;;12.25;3.15;;;;;;;21.81;62.52;100209.41;5010656;28;20030;-83
2022/07/16 00:26:20;;;;;;;9.48;3.10;;;;;;;21.69;62.89;100203.47;5007996;28;20391;-84
2022/07/16 00:28:45;;;;;;;8.65;2.90;;;;;;;22.02;63.48;100265.22;5010688;28;20033;-82
2022/07/16 00:31:11;;;;;;;10.32;3.00;;;;;;;21.84;63.79;100270.72;5013840;28;20040;-83
2022/07/16 00:33:37;;;;;;;11.18;3.25;;;;;;;21.57;66.03;100273.66;5014150;28;20518;-83
2022/07/16 00:36:03;;;;;;;7.95;2.75;;;;;;;21.77;65.45;100291.81;4996433;28;20107;-84
2022/07/16 00:38:29;;;;;;;8.35;3.03;;;;;;;21.74;66.12;100280.47;5014130;28;20033;-83
2022/07/16 00:40:55;;;;;;;6.72;2.25;;;;;;;21.76;65.57;100279.56;5012836;28;20029;-83
2022/07/16 00:43:21;;;;;;;11.68;2.35;;;;;;;21.71;65.96;100270.84;5013769;28;20022;-83
2022/07/16 00:45:46;;;;;;;8.50;2.85;;;;;;;21.42;67.05;100284.28;5012300;28;20033;-85
2022/07/16 00:48:12;;;;;;;5.80;2.75;;;;;;;21.24;67.45;100252.09;5013639;28;20107;-84
2022/07/16 00:50:38;;;;;;;6.55;2.80;;;;;;;21.15;67.85;100262.69;5013461;28;20054;-82
2022/07/16 00:53:04;;;;;;;6.30;2.70;;;;;;;21.30;68.01;100280.91;5013505;28;20045;-83
2022/07/16 00:55:30;;;;;;;7.90;3.00;;;;;;;21.37;67.47;100278.22;5013509;28;20478;-83
2022/07/16 00:57:57;;;;;;;7.90;2.80;;;;;;;21.08;68.33;100284.63;5013620;28;20030;-83
2022/07/16 01:00:24;;;;;;;6.82;3.00;;;;;;;21.08;68.05;100275.00;5013275;28;20393;-82
2022/07/16 01:02:49;;;;;;;10.77;3.00;;;;;;;21.19;67.73;100289.78;5013615;28;20073;-84
2022/07/16 01:05:16;;;;;;;7.13;2.80;;;;;;;21.12;67.40;100276.72;5006490;28;20507;-83
2022/07/16 01:07:43;;;;;;;7.38;3.03;;;;;;;21.04;68.37;100280.31;5014322;28;20042;-84
2022/07/16 01:10:09;;;;;;;7.97;2.65;;;;;;;20.75;68.62;100214.09;5001838;28;20034;-82
2022/07/16 01:12:35;;;;;;;6.35;2.92;;;;;;;21.07;68.17;100254.03;5013263;28;20404;-84
2022/07/16 01:15:01;;;;;;;8.25;2.55;;;;;;;20.88;67.79;100220.06;5012635;28;20084;-85
2022/07/16 01:17:27;;;;;;;6.57;2.55;;;;;;;20.66;68.64;100220.25;5012837;28;20037;-83
2022/07/16 01:19:53;;;;;;;5.85;2.35;;;;;;;20.57;69.60;100274.53;5012790;28;20057;-85
2022/07/16 01:22:22;;;;;;;6.60;2.60;;;;;;;19.84;71.57;100215.56;5012935;28;20026;-84
2022/07/16 01:24:49;;;;;;;5.38;2.65;;;;;;;20.00;72.21;100260.91;5012786;28;20034;-85
2022/07/16 01:27:16;;;;;;;6.45;3.05;;;;;;;20.29;71.72;100278.22;5012977;28;20025;-84
2022/07/16 01:29:41;;;;;;;5.90;2.67;;;;;;;20.43;70.43;100272.88;5012594;28;20033;-84
2022/07/16 01:32:07;;;;;;;8.70;2.88;;;;;;;20.67;69.44;100268.31;5012285;28;20077;-85
2022/07/16 01:34:32;;;;;;;5.25;3.10;;;;;;;20.41;69.65;100240.56;4995165;28;20480;-84
2022/07/16 01:37:01;;;;;;;5.07;3.08;;;;;;;20.69;69.17;100263.94;4994607;28;20419;-84
2022/07/16 01:39:28;;;;;;;7.95;2.83;;;;;;;20.42;70.48;100279.00;5012431;28;20037;-85
2022/07/16 01:41:56;;;;;;;4.35;2.47;;;;;;;20.10;70.75;100251.25;5012234;28;20511;-87
2022/07/16 01:44:24;;;;;;;7.18;3.42;;;;;;;20.45;70.76;100293.81;4994550;28;20407;-86
2022/07/16 01:46:51;;;;;;;5.63;3.58;;;;;;;20.42;70.34;100283.38;5012352;28;20100;-85
2022/07/16 01:49:16;;;;;;;5.93;3.90;;;;;;;20.39;70.22;100286.00;5012043;28;20480;-86
2022/07/16 01:51:42;;;;;;;6.85;4.10;;;;;;;20.28;69.58;100245.00;5012344;28;20033;-85
2022/07/16 01:54:07;;;;;;;9.18;4.90;;;;;;;20.40;69.98;100286.03;5011988;28;20030;-86
2022/07/16 01:56:33;;;;;;;9.75;4.88;;;;;;;20.20;69.05;100229.34;5011887;28;20030;-84
2022/07/16 01:58:58;;;;;;;11.63;5.85;;;;;;;20.57;68.78;100272.75;5011791;28;20139;-85
2022/07/16 02:01:24;;;;;;;10.90;6.15;;;;;;;20.40;69.43;100286.03;5011983;28;20053;-84
2022/07/16 02:03:49;;;;;;;9.50;6.30;;;;;;;20.27;69.96;100268.63;5012009;28;20061;-85
2022/07/16 02:06:15;;;;;;;9.70;6.60;;;;;;;20.13;69.72;100240.72;5011901;28;20021;-84
2022/07/16 02:08:41;;;;;;;10.20;7.10;;;;;;;20.35;70.08;100279.94;5011796;28;20063;-84
2022/07/16 02:11:07;;;;;;;11.20;7.32;;;;;;;20.08;70.14;100234.66;5011627;28;20555;-85
2022/07/16 02:13:33;;;;;;;9.93;7.75;;;;;;;20.19;70.00;100243.31;5011549;28;20044;-85
2022/07/16 02:15:58;;;;;;;11.63;8.50;;;;;;;20.24;70.81;100281.72;5011840;28;20451;-84
2022/07/16 02:18:24;;;;;;;11.73;9.05;;;;;;;20.14;70.96;100257.34;5011015;28;20033;-86
2022/07/16 02:20:49;;;;;;;13.40;8.55;;;;;;;20.23;70.98;100259.03;5011928;28;20062;-87
2022/07/16 02:23:15;;;;;;;9.70;8.20;;;;;;;20.11;72.08;100279.19;4993936;28;20025;-86
2022/07/16 02:25:40;;;;;;;12.70;8.57;;;;;;;19.85;73.19;100295.91;5011459;28;20034;-86
2022/07/16 02:28:06;;;;;;;12.05;8.52;;;;;;;19.29;74.11;100218.38;4993773;28;20466;-86
2022/07/16 02:30:36;;;;;;;12.00;7.75;;;;;;;19.79;74.26;100276.66;4993889;28;20057;-87
2022/07/16 02:33:02;;;;;;;9.73;7.53;;;;;;;19.77;73.95;100245.25;5011268;28;20037;-86
2022/07/16 02:35:28;;;;;;;10.75;7.10;;;;;;;20.08;73.22;100267.88;5011581;28;20160;-87
2022/07/16 02:37:53;;;;;;;10.15;7.75;;;;;;;20.14;72.58;100260.81;4993545;28;20029;-86
2022/07/16 02:40:19;;;;;;;14.05;7.80;;;;;;;20.49;72.26;100298.19;5011364;28;20157;-85
2022/07/16 02:42:44;;;;;;;13.60;9.40;;;;;;;20.38;71.75;100279.91;5011203;28;20044;-84
2022/07/16 02:45:11;;;;;;;14.77;11.05;;;;;;;20.16;71.39;100245.97;5010946;28;20477;-86
2022/07/16 02:47:37;;;;;;;14.05;11.20;;;;;;;20.49;72.10;100291.19;5011344;28;20029;-86
2022/07/16 02:50:04;;;;;;;18.13;12.15;;;;;;;20.35;72.33;100286.03;5011100;28;20022;-86
2022/07/16 02:52:29;;;;;;;14.98;12.40;;;;;;;19.98;72.38;100231.22;5010646;28;20030;-86
2022/07/16 02:54:54;;;;;;;15.23;12.23;;;;;;;20.24;72.36;100266.00;5011010;28;20030;-85
2022/07/16 02:57:20;;;;;;;23.92;12.80;;;;;;;20.50;72.49;100302.56;5010943;28;20025;-84
2022/07/16 02:59:45;;;;;;;18.70;11.57;;;;;;;20.31;73.12;100307.03;5011094;28;20065;-87
2022/07/16 03:02:11;;;;;;;17.02;11.73;;;;;;;19.77;73.57;100228.69;4992844;28;20111;-87
2022/07/16 03:04:36;;;;;;;13.93;11.18;;;;;;;20.28;73.01;100279.09;4993489;28;20030;-87
2022/07/16 03:07:03;;;;;;;18.70;12.15;;;;;;;20.28;72.64;100276.47;5012900;28;20076;-88
2022/07/16 03:09:29;;;;;;;17.05;12.50;;;;;;;20.16;72.69;100274.81;5019379;28;20026;-87
2022/07/16 03:11:54;;;;;;;22.52;11.32;;;;;;;20.24;73.66;100302.69;5010679;28;20040;-86
2022/07/16 03:14:20;;;;;;;17.05;12.13;;;;;;;20.30;72.89;100305.28;5008772;28;20041;-86
2022/07/16 03:16:45;;;;;;;15.43;11.57;;;;;;;19.88;73.96;100287.16;5010834;28;20108;-86
2022/07/16 03:19:10;;;;;;;18.00;11.65;;;;;;;19.81;74.77;100282.78;4992794;28;20518;-86
2022/07/16 03:21:36;;;;;;;16.50;10.90;;;;;;;19.70;75.60;100314.25;4993194;28;20040;-87
2022/07/16 03:24:02;;;;;;;17.60;10.95;;;;;;;19.12;77.23;100227.16;4993018;28;20126;-81
2022/07/16 03:26:27;;;;;;;22.25;11.20;;;;;;;19.56;77.00;100296.84;5009093;28;20088;-83
2022/07/16 03:28:52;;;;;;;21.42;11.70;;;;;;;19.54;75.73;100253.22;5010616;28;20030;-82
2022/07/16 03:31:18;;;;;;;18.20;10.50;;;;;;;20.02;73.67;100300.19;5010054;28;20037;-80
2022/07/16 03:33:45;;;;;;;12.07;8.52;;;;;;;20.32;71.60;100303.53;4991926;28;20041;-83
2022/07/16 03:36:11;;;;;;;17.77;9.52;;;;;;;20.41;73.17;100313.97;5010493;28;20030;-82
2022/07/16 03:41:20;;;;;;;8.20;5.55;;;;;;;20.33;69.37;100274.69;5010589;28;20044;-82
2022/07/16 03:43:46;;;;;;;10.70;5.70;;;;;;;20.62;69.37;100297.22;4992979;28;20034;-82
2022/07/16 03:46:13;;;;;;;13.82;6.13;;;;;;;20.96;68.37;100306.59;5009953;28;20479;-82
2022/07/16 03:48:39;;;;;;;14.27;6.65;;;;;;;21.01;68.38;100304.81;5010543;28;20425;-82
2022/07/16 03:51:06;;;;;;;12.80;7.32;;;;;;;21.03;68.51;100289.06;5008912;28;20025;-82
2022/07/16 03:53:34;;;;;;;14.48;5.45;;;;;;;21.06;68.50;100286.41;5009307;28;20492;-86
2022/07/16 03:56:00;;;;;;;9.10;4.65;;;;;;;21.10;68.35;100298.63;5010268;28;20037;-82
2022/07/16 03:58:26;;;;;;;13.32;5.40;;;;;;;21.13;68.10;100293.34;4992194;28;20048;-80
2022/07/16 04:00:52;;;;;;;9.35;4.38;;;;;;;20.84;67.85;100269.09;5010203;28;20105;-81
2022/07/16 04:03:18;;;;;;;11.52;4.10;;;;;;;20.87;68.01;100273.44;5010290;28;20022;-82
2022/07/16 04:05:44;;;;;;;9.30;4.18;;;;;;;20.59;68.10;100231.66;5013829;28;20022;-81
2022/07/16 04:08:09;;;;;;;16.33;5.40;;;;;;;20.95;68.65;100276.88;5013458;28;20514;-78
2022/07/16 04:10:35;;;;;;;8.10;4.00;;;;;;;20.72;68.70;100237.72;5014068;28;20466;-82
2022/07/16 04:13:00;;;;;;;7.70;3.95;;;;;;;21.21;68.56;100307.28;4996537;28;20037;-77
2022/07/16 04:15:27;;;;;;;5.22;3.75;;;;;;;21.29;68.21;100313.28;5014180;28;20075;-81
2022/07/16 04:17:53;;;;;;;6.53;3.40;;;;;;;21.29;67.87;100304.56;5012481;28;20132;-81
2022/07/16 04:20:18;;;;;;;8.43;3.63;;;;;;;21.26;67.82;100297.59;5018045;28;20141;-81
2022/07/16 04:22:44;;;;;;;5.95;3.50;;;;;;;21.33;67.87;100304.53;5022396;28;20515;-80
2022/07/16 04:25:09;;;;;;;9.25;3.90;;;;;;;21.11;67.74;100253.97;5013822;28;20041;-81
2022/07/16 04:27:35;;;;;;;14.27;3.78;;;;;;;21.48;67.64;100306.13;4996372;28;20034;-80
2022/07/16 04:30:00;;;;;;;11.77;3.65;;;;;;;21.39;67.58;100274.69;5013927;28;20041;-81
2022/07/16 04:32:26;;;;;;;10.05;4.18;;;;;;;21.16;67.64;100236.44;5013814;28;20113;-81
2022/07/16 04:34:51;;;;;;;8.18;4.45;;;;;;;21.56;68.41;100318.31;5000605;28;20042;-82
2022/07/16 04:37:16;;;;;;;6.20;4.00;;;;;;;21.50;68.88;100314.84;4993954;28;20018;-82
2022/07/16 04:39:42;;;;;;;9.48;3.97;;;;;;;21.34;69.31;100289.63;4994169;28;20465;-82
2022/07/16 04:42:07;;;;;;;6.35;3.63;;;;;;;21.50;69.57;100306.94;4994133;28;20026;-81
2022/07/16 04:44:33;;;;;;;8.45;4.13;;;;;;;21.52;70.15;100298.19;4994089;28;20028;-82
2022/07/16 04:46:58;;;;;;;5.80;4.38;;;;;;;21.44;71.41;100306.16;4994029;28;20030;-81
2022/07/16 04:49:24;;;;;;;7.78;4.00;;;;;;;21.10;71.39;100256.63;4992539;28;20104;-81
2022/07/16 04:51:49;;;;;;;5.88;3.90;;;;;;;21.14;72.07;100271.44;4993669;28;20110;-81
2022/07/16 04:54:15;;;;;;;9.63;3.80;;;;;;;21.25;72.42;100297.59;4993902;28;20465;-81
2022/07/16 04:56:40;;;;;;;7.47;3.28;;;;;;;21.46;73.36;100310.50;4994025;28;20555;-81
2022/07/16 04:59:05;;;;;;;5.88;3.35;;;;;;;21.09;74.31;100266.25;4993730;28;20088;-81
2022/07/16 05:01:31;;;;;;;4.90;3.13;;;;;;;21.34;74.14;100314.13;4993654;28;20034;-80
2022/07/16 05:03:56;;;;;;;5.72;3.10;;;;;;;21.07;73.87;100270.66;4993744;28;20026;-81
2022/07/16 05:06:22;;;;;;;7.38;2.90;;;;;;;21.32;74.15;100302.78;4993738;28;20034;-81
2022/07/16 05:08:47;;;;;;;7.43;2.80;;;;;;;20.98;73.95;100237.47;4959277;28;20050;-81
2022/07/16 05:11:13;;;;;;;9.00;3.13;;;;;;;21.53;74.02;100320.94;4993582;28;20485;-81
2022/07/16 05:13:38;;;;;;;4.82;3.15;;;;;;;21.58;72.90;100319.16;4993514;28;20026;-79
2022/07/16 05:16:04;;;;;;;7.70;3.30;;;;;;;21.51;73.36;100294.72;4993431;28;20089;-81
2022/07/16 05:18:29;;;;;;;8.48;3.33;;;;;;;21.76;73.38;100321.59;4993424;28;20463;-81
2022/07/16 05:20:55;;;;;;;7.43;3.75;;;;;;;21.74;72.86;100304.97;4993372;28;20048;-81
2022/07/16 05:23:20;;;;;;;4.60;3.30;;;;;;;21.77;72.91;100297.06;4993603;28;20034;-81
2022/07/16 05:25:46;;;;;;;5.55;3.80;;;;;;;21.78;72.61;100296.19;4993340;28;20045;-81
2022/07/16 05:28:11;;;;;;;10.43;4.13;;;;;;;22.03;72.13;100327.41;4975837;28;20026;-81
2022/07/16 05:30:36;;;;;;;6.63;3.45;;;;;;;22.07;72.01;100309.81;4993187;28;20062;-81
2022/07/16 05:33:02;;;;;;;7.47;4.40;;;;;;;22.26;71.24;100319.22;4991868;28;20081;-81
2022/07/16 05:35:28;;;;;;;10.95;4.18;;;;;;;22.33;71.32;100311.22;4992986;28;20034;-81
2022/07/16 05:37:53;;;;;;;8.05;4.00;;;;;;;22.41;70.98;100310.25;4993105;28;20547;-81
2022/07/16 05:40:19;;;;;;;5.97;4.50;;;;;;;22.56;70.60;100313.56;4992888;28;20506;-81
2022/07/16 05:42:44;;;;;;;8.55;4.40;;;;;;;22.53;70.20;100295.19;4993059;28;20493;-82
2022/07/16 05:45:10;;;;;;;9.02;4.20;;;;;;;22.69;69.91;100301.06;4992769;28;20088;-81
2022/07/16 05:47:37;;;;;;;5.65;3.95;;;;;;;22.77;69.74;100315.84;4992758;28;20033;-81
2022/07/16 05:50:06;;;;;;;6.78;4.45;;;;;;;22.93;69.09;100328.78;4992756;28;20041;-81
2022/07/16 05:52:31;;;;;;;8.40;3.90;;;;;;;22.83;70.26;100293.84;4992663;28;20022;-80
2022/07/16 05:54:57;;;;;;;8.25;4.10;;;;;;;23.00;69.56;100314.59;4993111;28;20104;-81
2022/07/16 05:57:22;;;;;;;5.93;3.72;;;;;;;23.10;69.92;100321.47;4992730;28;20472;-80
2022/07/16 05:59:48;;;;;;;7.50;4.10;;;;;;;23.27;69.62;100321.19;4992387;28;20080;-79
2022/07/16 06:02:13;;;;;;;5.80;4.43;;;;;;;23.45;69.05;100320.88;4992781;28;20056;-81
2022/07/16 06:04:39;;;;;;;9.27;4.47;;;;;;;23.34;68.90;100294.72;4992358;28;20030;-82
2022/07/16 06:07:04;;;;;;;6.97;4.00;;;;;;;23.48;68.99;100302.38;4992806;28;20461;-81
2022/07/16 06:09:30;;;;;;;7.43;4.28;;;;;;;23.38;69.00;100265.69;4992244;28;20405;-80
2022/07/16 06:11:55;;;;;;;8.13;4.07;;;;;;;23.79;68.26;100326.38;4992745;28;20037;-79
2022/07/16 06:14:21;;;;;;;8.32;4.35;;;;;;;23.83;68.63;100317.50;4992091;28;20551;-78
2022/07/16 06:16:47;;;;;;;10.77;4.13;;;;;;;23.92;68.45;100308.56;4992304;28;20125;-80
2022/07/16 06:19:13;;;;;;;7.35;4.07;;;;;;;24.14;67.91;100323.91;4991779;28;20088;-79
2022/07/16 06:21:39;;;;;;;8.07;3.63;;;;;;;24.08;67.58;100279.25;5011514;28;20033;-80
2022/07/16 06:24:06;;;;;;;4.38;3.53;;;;;;;24.42;66.16;100312.75;5010362;28;20026;-80
2022/07/16 06:26:31;;;;;;;12.98;3.60;;;;;;;24.34;66.03;100290.06;5006765;28;20153;-80
2022/07/16 06:28:57;;;;;;;9.77;2.80;;;;;;;24.51;64.10;100301.97;5007432;28;20095;-79
2022/07/16 06:31:22;;;;;;;8.30;3.50;;;;;;;24.32;62.25;100252.28;5007756;28;20056;-81
2022/07/16 06:33:48;;;;;;;5.88;3.15;;;;;;;24.73;60.01;100293.59;5007181;28;20504;-80
2022/07/16 06:36:13;;;;;;;6.10;2.50;;;;;;;24.67;59.01;100257.66;5007876;28;20029;-81
2022/07/16 06:38:38;;;;;;;5.30;2.50;;;;;;;24.78;58.73;100270.59;5007328;28;20029;-81
2022/07/16 06:41:04;;;;;;;4.00;2.08;;;;;;;24.87;56.79;100271.22;5007377;28;20022;-80
2022/07/16 06:43:29;;;;;;;5.72;2.33;;;;;;;24.80;56.39;100243.25;5005976;28;20065;-80
2022/07/16 06:45:55;;;;;;;3.67;2.20;;;;;;;24.96;56.35;100267.47;5007383;28;20022;-81
2022/07/16 06:48:20;;;;;;;4.65;2.60;;;;;;;25.15;60.32;100283.69;5007049;28;20026;-81
2022/07/16 06:50:46;;;;;;;5.18;2.20;;;;;;;25.26;56.07;100256.13;5007189;28;20430;-81
2022/07/16 06:53:11;;;;;;;7.28;2.70;;;;;;;25.61;55.28;100284.25;5007089;28;20085;-80
2022/07/16 06:55:37;;;;;;;3.67;2.60;;;;;;;25.60;54.30;100264.00;5007001;28;20024;-83
2022/07/16 06:58:02;;;;;;;10.57;2.72;;;;;;;25.49;54.07;100231.72;5006948;28;20029;-82
2022/07/16 07:00:27;;;;;;;6.05;2.45;;;;;;;25.96;53.21;100285.00;5007289;28;20034;-79
2022/07/16 07:02:53;;;;;;;5.18;2.30;;;;;;;26.06;51.86;100255.66;4989198;28;20089;-82
2022/07/16 07:05:18;;;;;;;4.05;2.33;;;;;;;26.24;52.31;100276.22;5006912;28;20034;-80
2022/07/16 07:07:44;;;;;;;7.28;2.53;;;;;;;26.34;51.27;100268.88;5008958;28;20034;-80
2022/07/16 07:10:09;;;;;;;7.10;2.40;;;;;;;26.22;53.64;100243.69;5011086;28;20120;-80
2022/07/16 07:12:35;;;;;;;5.95;2.50;;;;;;;26.41;52.78;100267.75;5010877;28;20665;-77
2022/07/16 07:15:01;;;;;;;5.18;2.60;;;;;;;26.73;50.51;100270.25;5011212;28;20045;-81
2022/07/16 07:17:27;;;;;;;5.10;2.30;;;;;;;26.75;54.16;100260.53;5010751;28;20030;-81
2022/07/16 07:19:52;;;;;;;4.53;2.08;;;;;;;27.07;48.82;100266.50;5010532;28;20064;-80
2022/07/16 07:22:18;;;;;;;3.85;2.33;;;;;;;27.13;47.75;100266.31;5010762;28;20036;-81
2022/07/16 07:24:43;;;;;;;6.00;2.50;;;;;;;27.43;46.22;100256.41;5011235;28;20030;-79
2022/07/16 07:27:09;;;;;;;5.97;2.30;;;;;;;27.54;47.66;100268.38;5010297;28;20462;-83
2022/07/16 07:29:34;;;;;;;4.57;2.20;;;;;;;27.47;45.85;100251.84;5010880;28;20037;-82
2022/07/16 07:32:00;;;;;;;3.85;2.30;;;;;;;27.73;46.29;100269.44;5011163;28;20026;-79
2022/07/16 07:34:26;;;;;;;5.00;2.13;;;;;;;27.76;42.89;100224.25;5010314;28;20113;-80
2022/07/16 07:36:51;;;;;;;7.35;2.10;;;;;;;28.05;43.23;100264.72;5010781;28;20108;-80
2022/07/16 07:39:17;;;;;;;8.32;2.17;;;;;;;28.06;42.28;100247.00;5010433;28;20153;-80
2022/07/16 07:41:42;;;;;;;3.55;2.10;;;;;;;27.97;42.97;100213.69;5010757;28;20030;-81
2022/07/16 07:44:08;;;;;;;3.45;2.00;;;;;;;28.16;44.10;100250.16;5010859;28;20537;-81
2022/07/16 07:46:33;;;;;;;15.85;2.40;;;;;;;28.30;42.22;100258.44;5010680;28;20088;-81
2022/07/16 07:48:59;;;;;;;3.97;1.90;;;;;;;28.63;41.72;100270.41;5010345;28;20037;-80
2022/07/16 07:51:24;;;;;;;3.00;1.90;;;;;;;28.56;42.22;100251.19;5010736;28;20072;-81
2022/07/16 07:53:50;;;;;;;2.90;1.92;;;;;;;28.53;40.87;100251.31;5010472;28;20069;-81
2022/07/16 07:56:15;;;;;;;2.75;1.70;;;;;;;28.66;42.56;100268.47;4992774;28;20160;-80
2022/07/16 07:58:41;;;;;;;3.55;2.10;;;;;;;28.91;40.16;100277.22;5010472;28;20037;-83
2022/07/16 08:01:06;;;;;;;4.70;2.20;;;;;;;28.94;40.38;100270.00;5010440;28;20480;-86
2022/07/16 08:03:32;;;;;;;3.55;1.90;;;;;;;29.19;39.94;100279.56;5010677;28;20050;-90
2022/07/16 08:05:57;;;;;;;4.45;1.83;;;;;;;29.21;39.45;100267.94;4987799;28;20034;-92
2022/07/16 08:08:23;;;;;;;2.42;1.88;;;;;;;28.85;39.31;100202.16;4991570;28;20460;-90
2022/07/16 08:10:48;;;;;;;8.95;3.00;;;;;;;29.62;40.17;100272.34;4990914;28;20456;-89
2022/07/16 08:13:14;;;;;;;3.95;1.83;;;;;;;29.79;38.83;100268.91;4973129;28;20045;-93
2022/07/16 08:15:39;;;;;;;6.10;1.90;;;;;;;29.78;39.00;100267.16;4989681;28;20046;-89
2022/07/16 08:18:05;;;;;;;5.80;1.80;;;;;;;29.70;40.65;100253.38;4990332;28;20035;-91
2022/07/16 08:20:31;;;;;;;5.85;2.08;;;;;;;29.72;37.97;100248.84;4990671;28;20117;-87
2022/07/16 08:22:57;;;;;;;10.20;1.90;;;;;;;29.86;37.67;100249.06;4986426;28;20069;-87
2022/07/16 08:28:06;;;;;;;3.25;1.83;;;;;;;30.33;37.27;100262.84;4990718;28;20040;-88
2022/07/16 08:30:31;;;;;;;6.05;2.30;;;;;;;30.44;37.32;100251.66;4990570;28;20412;-89
2022/07/16 08:32:57;;;;;;;3.38;2.08;;;;;;;30.49;37.74;100239.00;5000119;28;20116;-82
2022/07/16 08:35:22;;;;;;;5.95;2.20;;;;;;;30.58;39.82;100251.00;4992501;28;20045;-81
2022/07/16 08:37:48;;;;;;;4.55;1.88;;;;;;;30.80;36.66;100262.28;5010013;28;20077;-81
2022/07/16 08:40:18;;;;;;;4.53;2.20;;;;;;;30.72;36.00;100251.19;5010077;28;20480;-81
2022/07/16 08:42:45;;;;;;;4.00;2.13;;;;;;;30.64;36.32;100238.25;4992445;28;20466;-81
2022/07/16 08:45:12;;;;;;;3.70;1.98;;;;;;;30.74;36.34;100256.41;5010071;28;20100;-81
2022/07/16 08:47:38;;;;;;;8.20;2.15;;;;;;;30.84;36.41;100246.16;5008868;28;20036;-82
2022/07/16 08:50:13;;;;;;;4.15;2.10;;;;;;;30.51;35.60;100191.84;5010771;28;20029;-81
2022/07/16 08:52:41;;;;;;;6.18;2.10;;;;;;;30.97;35.77;100255.25;5013305;28;20037;-81
2022/07/16 08:55:08;;;;;;;3.17;1.80;;;;;;;31.05;35.59;100249.50;5002227;28;20030;-80
2022/07/16 08:57:36;;;;;;;3.22;2.05;;;;;;;31.30;40.37;100254.44;5000212;28;20041;-80
2022/07/16 09:00:04;;;;;;;4.40;2.35;;;;;;;31.35;37.49;100235.53;5009932;28;20026;-79
2022/07/16 09:02:29;;;;;;;6.00;2.22;;;;;;;31.30;38.42;100228.66;4993542;28;20085;-80
2022/07/16 09:04:55;;;;;;;4.20;2.35;;;;;;;31.46;37.77;100259.81;4992452;28;20097;-82
2022/07/16 09:07:21;;;;;;;4.80;2.00;;;;;;;31.38;35.97;100251.34;4992346;28;20473;-80
2022/07/16 09:09:47;;;;;;;3.42;2.10;;;;;;;31.37;35.05;100244.31;4993284;28;20031;-80
2022/07/16 09:12:43;;;;;;;3.38;2.13;;;;;;;31.40;35.38;100226.31;4992276;28;20031;-78
2022/07/16 09:15:21;;;;;;;20.88;2.42;;;;;;;31.73;37.53;100253.97;4994289;28;20088;-83
2022/07/16 09:18:17;;;;;;;5.38;2.10;;;;;;;31.82;35.98;100255.25;4992481;28;20481;-84
2022/07/16 09:21:02;;;;;;;5.32;2.28;;;;;;;31.86;34.34;100251.47;4992214;28;20080;-80
2022/07/16 09:23:35;;;;;;;4.03;2.20;;;;;;;32.01;33.69;100249.75;4992656;28;20097;-79
2022/07/16 09:26:04;;;;;;;6.78;2.30;;;;;;;32.06;33.31;100229.81;4992365;28;20503;-81
2022/07/16 09:28:47;;;;;;;7.55;2.30;;;;;;;32.52;33.84;100239.69;4993551;28;20409;-81
2022/07/16 09:31:31;;;;;;;3.80;2.08;;;;;;;32.69;32.84;100240.53;4957733;28;20038;-81
2022/07/16 09:34:12;;;;;;;6.47;3.05;;;;;;;32.78;31.93;100237.31;4992112;28;20085;-81
2022/07/16 09:36:40;;;;;;;4.68;2.17;;;;;;;32.82;32.12;100224.63;4992148;28;20460;-78
2022/07/16 09:39:07;;;;;;;5.93;2.17;;;;;;;33.03;31.55;100222.47;4991868;28;20117;-79
2022/07/16 09:41:44;;;;;;;5.15;2.10;;;;;;;33.27;30.95;100232.59;4996704;28;20034;-78
2022/07/16 09:44:24;;;;;;;2.00;1.80;;;;;;;33.30;32.59;100219.06;5011244;28;20026;-82
2022/07/16 09:47:08;;;;;;;3.55;2.10;;;;;;;33.43;32.27;100219.16;4996979;28;20030;-79
2022/07/16 09:49:36;;;;;;;6.25;2.10;;;;;;;33.46;31.63;100192.19;4991380;28;20026;-81
2022/07/16 09:52:07;;;;;;;3.22;2.08;;;;;;;33.35;31.77;100185.72;4997452;28;20056;-80
2022/07/16 09:54:36;;;;;;;4.60;2.35;;;;;;;33.58;30.12;100210.16;5000731;28;20025;-79
2022/07/16 09:57:15;;;;;;;8.18;2.17;;;;;;;33.43;29.89;100158.47;4992187;28;20038;-77
2022/07/16 09:59:42;;;;;;;4.57;1.85;;;;;;;33.58;31.03;100195.91;5011177;28;20042;-75
2022/07/16 10:02:08;;;;;;;5.70;2.15;;;;;;;33.69;30.33;100204.13;5005133;28;20042;-78
2022/07/16 10:04:35;;;;;;;3.58;2.20;;;;;;;33.84;30.06;100183.56;5011687;28;20026;-78
2022/07/16 10:07:00;;;;;;;7.22;2.50;;;;;;;34.09;29.03;100208.72;5011520;28;20042;-76
2022/07/16 10:09:26;;;;;;;9.18;2.83;;;;;;;34.19;30.01;100202.63;5010927;28;20507;-78
2022/07/16 10:11:54;;;;;;;7.70;2.67;;;;;;;34.00;29.93;100211.03;5010735;28;20508;-78
2022/07/16 10:14:21;;;;;;;5.57;2.33;;;;;;;34.18;29.54;100198.25;5010122;28;20029;-78
2022/07/16 10:16:47;;;;;;;4.95;2.47;;;;;;;34.51;29.00;100202.31;5011777;28;20026;-78
2022/07/16 10:19:14;;;;;;;4.57;2.42;;;;;;;34.32;28.23;100173.22;5010201;28;20037;-80
2022/07/16 10:21:41;;;;;;;7.13;2.30;;;;;;;34.16;28.74;100143.91;5010159;28;20083;-78
2022/07/16 10:24:13;;;;;;;7.50;2.63;;;;;;;34.75;28.94;100192.72;5010271;28;20014;-79
2022/07/16 10:26:39;;;;;;;5.05;2.22;;;;;;;34.97;28.11;100192.97;5009880;28;20029;-82
2022/07/16 10:29:05;;;;;;;8.80;2.33;;;;;;;35.04;27.87;100173.75;4994111;28;21991;-78
2022/07/16 10:31:41;;;;;;;8.70;2.85;;;;;;;35.45;27.78;100192.31;4998009;28;20033;-76
2022/07/16 10:34:12;;;;;;;3.20;1.95;;;;;;;35.56;27.59;100183.44;4993587;28;20038;-75
2022/07/16 10:36:52;;;;;;;5.78;2.28;;;;;;;35.38;27.96;100149.88;4990803;28;20026;-77
2022/07/16 10:39:19;;;;;;;4.68;2.05;;;;;;;35.45;27.19;100178.88;4990789;28;20373;-78
2022/07/16 10:41:53;;;;;;;8.63;2.90;;;;;;;35.24;31.18;100170.53;4990445;28;20026;-79
2022/07/16 10:44:21;;;;;;;11.93;2.40;;;;;;;35.16;30.71;100191.66;4990785;28;20026;-79
2022/07/16 10:47:03;;;;;;;8.02;2.55;;;;;;;35.03;29.24;100185.44;4990817;28;20125;-78
2022/07/16 10:49:29;;;;;;;9.07;3.08;;;;;;;34.94;29.10;100178.91;4990314;28;20034;-77
2022/07/16 10:51:59;;;;;;;7.00;2.50;;;;;;;34.86;28.60;100174.09;4990389;28;20034;-76
2022/07/16 10:54:26;;;;;;;5.38;2.30;;;;;;;34.75;29.01;100174.78;4990621;28;20026;-74
2022/07/16 10:56:53;;;;;;;5.28;2.38;;;;;;;34.53;27.95;100139.72;4990902;28;20037;-76
2022/07/16 10:59:25;;;;;;;8.93;2.63;;;;;;;34.66;28.59;100173.59;5009409;28;20088;-80
2022/07/16 11:01:54;;;;;;;5.78;2.00;;;;;;;34.64;27.76;100140.69;4970833;28;20060;-73
2022/07/16 11:04:38;;;;;;;5.10;2.10;;;;;;;34.42;29.66;100122.56;4968665;28;20482;-82
2022/07/16 11:07:07;;;;;;;3.85;2.40;;;;;;;34.63;31.12;100173.84;4981944;28;20504;-80
2022/07/16 11:09:35;;;;;;;4.25;2.13;;;;;;;34.38;31.25;100153.19;4984788;28;20039;-84
2022/07/16 11:12:09;;;;;;;3.35;2.10;;;;;;;34.32;30.70;100173.22;4988292;28;20038;-75
2022/07/16 11:14:36;;;;;;;3.78;2.30;;;;;;;34.22;29.52;100150.69;4987843;28;20042;-77
2022/07/16 11:17:02;;;;;;;5.93;2.30;;;;;;;34.42;31.49;100162.75;4988171;28;20049;-80
2022/07/16 11:19:28;;;;;;;4.68;2.10;;;;;;;34.60;30.61;100167.81;4987614;28;20051;-81
2022/07/16 11:21:58;;;;;;;6.00;2.28;;;;;;;34.82;31.23;100161.81;4988246;28;20105;-77
2022/07/16 11:24:25;;;;;;;3.08;2.20;;;;;;;34.76;31.14;100160.41;4987462;28;20065;-75
2022/07/16 11:26:52;;;;;;;6.68;2.40;;;;;;;34.18;29.86;100076.81;4973793;28;20117;-79